Time;durP1;ratioP1;P1;durP2;ratioP2;P2;SDS_P1;SDS_P2;PMS_P1;PMS_P2;Temp;Humidity;BMP_temperature;BMP_pressure;BME280_temperature;BME280_humidity;BME280_pressure;Samples;Min_cycle;Max_cycle;Signal;HPM_P1;HPM_P2
2023/05/25 00:01:17;;;;;;;0.10;0.10;;;;;;;18.18;52.39;102691.38;5065387;28;20033;-63
2023/05/25 00:03:44;;;;;;;0.20;0.20;;;;;;;18.45;51.89;102694.56;5050460;28;20036;-64
2023/05/25 00:06:10;;;;;;;0.10;0.10;;;;;;;18.37;51.84;102699.28;5051249;28;20144;-63
2023/05/25 00:08:36;;;;;;;0.17;0.17;;;;;;;18.64;51.72;102698.88;5045266;28;20053;-63
2023/05/25 00:11:01;;;;;;;0.20;0.20;;;;;;;18.67;51.48;102690.25;5050018;28;20559;-63
2023/05/25 00:13:27;;;;;;;0.17;0.17;;;;;;;18.77;51.07;102691.31;5052947;28;20032;-62
2023/05/25 00:15:52;;;;;;;0.30;0.30;;;;;;;18.74;51.03;102689.09;5069759;28;20116;-63
2023/05/25 00:18:17;;;;;;;0.30;0.30;;;;;;;18.72;51.31;102690.38;5040467;28;20037;-63
2023/05/25 00:20:43;;;;;;;0.10;0.10;;;;;;;18.70;51.08;102689.78;5030031;28;20037;-63
2023/05/25 00:23:09;;;;;;;0.10;0.10;;;;;;;18.66;51.26;102696.75;5029938;28;20405;-64
2023/05/25 00:25:34;;;;;;;0.20;0.20;;;;;;;18.38;52.05;102695.47;5040004;28;20067;-63
2023/05/25 00:28:03;;;;;;;0.22;0.22;;;;;;;18.26;52.45;102697.31;5049645;28;20087;-62
2023/05/25 00:30:29;;;;;;;0.10;0.10;;;;;;;18.06;53.15;102704.91;5050027;28;20484;-63
2023/05/25 00:32:54;;;;;;;0.20;0.20;;;;;;;17.50;55.71;102713.34;5050577;28;20032;-63
2023/05/25 00:35:20;;;;;;;0.20;0.20;;;;;;;17.83;54.34;102706.69;5049857;28;20037;-64
2023/05/25 00:37:45;;;;;;;0.10;0.10;;;;;;;17.72;55.36;102707.44;5049898;28;20086;-63
2023/05/25 00:40:15;;;;;;;0.10;0.10;;;;;;;18.23;54.00;102707.84;5049814;28;20542;-62
2023/05/25 00:42:41;;;;;;;0.20;0.20;;;;;;;18.05;53.82;102699.69;5049444;28;20044;-62
2023/05/25 00:45:07;;;;;;;0.10;0.10;;;;;;;17.62;54.57;102694.38;5050482;28;20055;-63
2023/05/25 00:47:32;;;;;;;0.10;0.10;;;;;;;17.97;54.51;102700.84;5049496;28;20500;-65
2023/05/25 00:50:00;;;;;;;0.20;0.20;;;;;;;18.28;53.10;102703.34;5049504;28;20037;-64
2023/05/25 00:52:26;;;;;;;0.28;0.28;;;;;;;17.93;53.21;102707.81;5049302;28;20048;-62
2023/05/25 00:54:54;;;;;;;0.20;0.20;;;;;;;17.86;53.70;102711.69;5049348;28;20546;-64
2023/05/25 00:57:24;;;;;;;0.20;0.20;;;;;;;17.98;54.18;102704.41;5049550;28;20071;-62
2023/05/25 00:59:51;;;;;;;0.20;0.20;;;;;;;17.14;56.17;102710.53;5049838;28;20033;-64
2023/05/25 01:02:18;;;;;;;0.10;0.10;;;;;;;17.86;54.45;102707.06;5049088;28;20509;-62
2023/05/25 01:04:48;;;;;;;0.20;0.20;;;;;;;17.57;55.17;102709.72;5081538;28;20055;-63
2023/05/25 01:07:24;;;;;;;0.17;0.17;;;;;;;18.08;53.51;102708.22;5049624;28;20496;-63
2023/05/25 01:09:55;;;;;;;0.13;0.13;;;;;;;18.26;53.30;102710.91;5052669;28;20040;-64
2023/05/25 01:12:23;;;;;;;0.10;0.10;;;;;;;17.96;54.18;102709.25;5068872;28;20040;-62
2023/05/25 01:14:49;;;;;;;0.30;0.30;;;;;;;17.41;56.00;102714.63;5055646;28;20408;-65
2023/05/25 01:17:15;;;;;;;0.30;0.30;;;;;;;17.90;54.45;102721.88;5064341;28;20045;-63
2023/05/25 01:19:44;;;;;;;0.10;0.10;;;;;;;17.92;54.54;102722.47;5049053;28;20036;-63
2023/05/25 01:22:31;;;;;;;0.10;0.10;;;;;;;17.78;55.17;102718.25;5044941;28;20039;-63
2023/05/25 01:25:02;;;;;;;0.20;0.20;;;;;;;17.77;54.57;102718.50;5048827;28;20032;-63
2023/05/25 01:27:50;;;;;;;0.10;0.10;;;;;;;18.37;53.57;102715.59;5047665;28;20024;-64
2023/05/25 01:30:18;;;;;;;0.10;0.10;;;;;;;18.23;53.37;102719.56;5049266;28;20041;-64
2023/05/25 01:32:44;;;;;;;0.10;0.10;;;;;;;17.88;54.37;102723.16;5049127;28;20029;-63
2023/05/25 01:35:10;;;;;;;0.28;0.28;;;;;;;17.94;54.30;102728.53;5048905;28;20049;-61
2023/05/25 01:37:46;;;;;;;0.20;0.20;;;;;;;17.77;54.99;102718.50;5048665;28;20068;-63
2023/05/25 01:40:13;;;;;;;0.20;0.20;;;;;;;17.92;54.76;102717.03;5048916;28;20041;-62
2023/05/25 01:42:38;;;;;;;0.20;0.20;;;;;;;17.71;54.50;102722.13;5048837;28;20021;-62
2023/05/25 01:45:04;;;;;;;0.20;0.20;;;;;;;18.01;54.02;102717.53;5049377;28;20071;-63
2023/05/25 01:47:52;;;;;;;0.20;0.20;;;;;;;18.34;53.31;102715.22;5048778;28;20037;-64
2023/05/25 01:50:23;;;;;;;0.20;0.20;;;;;;;18.37;52.59;102720.22;5048607;28;20044;-63
2023/05/25 01:53:09;;;;;;;0.20;0.20;;;;;;;18.46;53.37;102728.88;5048557;28;20044;-63
2023/05/25 01:55:59;;;;;;;0.20;0.20;;;;;;;18.49;52.84;102728.44;5048749;28;20075;-65
2023/05/25 01:58:26;;;;;;;0.20;0.20;;;;;;;18.31;53.00;102724.69;4986336;28;20383;-63
2023/05/25 02:00:52;;;;;;;0.20;0.20;;;;;;;17.98;53.27;102726.19;4986562;28;20034;-63
2023/05/25 02:03:19;;;;;;;0.20;0.20;;;;;;;18.11;53.48;102729.56;5005127;28;20108;-64
2023/05/25 02:05:45;;;;;;;0.10;0.10;;;;;;;18.05;53.52;102714.16;5005506;28;20356;-64
2023/05/25 02:08:10;;;;;;;0.20;0.20;;;;;;;18.07;52.74;102720.19;4986782;28;20038;-63
2023/05/25 02:10:35;;;;;;;0.15;0.15;;;;;;;18.12;53.12;102717.59;4991662;28;20414;-62
2023/05/25 02:13:01;;;;;;;0.20;0.20;;;;;;;18.09;52.88;102720.78;5006072;28;20542;-64
2023/05/25 02:15:32;;;;;;;0.10;0.10;;;;;;;18.08;53.08;102721.03;5006123;28;20049;-64
2023/05/25 02:17:59;;;;;;;0.17;0.17;;;;;;;18.06;52.68;102736.75;5006509;28;20022;-63
2023/05/25 02:20:25;;;;;;;0.20;0.20;;;;;;;18.01;53.13;102731.16;5005789;28;20061;-63
2023/05/25 02:22:51;;;;;;;0.20;0.20;;;;;;;17.98;52.65;102734.34;5005959;28;20572;-63
2023/05/25 02:25:16;;;;;;;0.10;0.10;;;;;;;17.92;53.10;102737.97;5005996;28;20037;-62
2023/05/25 02:27:42;;;;;;;0.10;0.10;;;;;;;17.96;52.84;102737.28;5005865;28;20042;-63
2023/05/25 02:30:08;;;;;;;0.20;0.20;;;;;;;17.89;53.69;102739.25;5001259;28;20394;-62
2023/05/25 02:32:34;;;;;;;0.20;0.20;;;;;;;18.01;53.13;102742.88;4986694;28;20038;-63
2023/05/25 02:35:00;;;;;;;0.20;0.20;;;;;;;17.88;52.95;102734.03;4993660;28;20053;-62
2023/05/25 02:37:25;;;;;;;0.20;0.20;;;;;;;17.87;52.93;102741.34;5008953;28;20095;-63
2023/05/25 02:39:51;;;;;;;0.20;0.20;;;;;;;17.92;52.94;102746.13;5011498;28;20049;-64
2023/05/25 02:42:16;;;;;;;0.20;0.20;;;;;;;18.00;52.71;102745.81;5012599;28;20026;-63
2023/05/25 02:44:47;;;;;;;0.20;0.20;;;;;;;17.88;52.76;102739.47;5012059;28;20034;-63
2023/05/25 02:47:16;;;;;;;0.30;0.30;;;;;;;17.84;52.42;102741.81;5012226;28;20058;-63
2023/05/25 02:49:42;;;;;;;0.20;0.20;;;;;;;17.78;53.09;102750.88;5011900;28;20037;-63
2023/05/25 02:52:08;;;;;;;0.20;0.20;;;;;;;17.84;53.31;102754.59;5012207;28;20038;-65
2023/05/25 02:54:33;;;;;;;0.20;0.20;;;;;;;17.87;52.70;102754.97;5013720;28;20474;-63
2023/05/25 02:56:58;;;;;;;0.20;0.20;;;;;;;17.71;53.06;102752.03;5031924;28;20095;-64
2023/05/25 02:59:24;;;;;;;0.20;0.20;;;;;;;17.64;53.12;102753.97;5031881;28;20052;-63
2023/05/25 03:01:50;;;;;;;0.20;0.20;;;;;;;17.44;53.45;102756.84;5031678;28;20044;-63
2023/05/25 03:04:16;;;;;;;0.30;0.30;;;;;;;17.60;53.64;102763.63;5031515;28;20037;-63
2023/05/25 03:06:42;;;;;;;0.22;0.22;;;;;;;17.71;53.73;102763.72;5031671;28;20033;-63
2023/05/25 03:09:08;;;;;;;0.22;0.22;;;;;;;17.80;53.31;102764.25;5031999;28;20500;-62
2023/05/25 03:11:33;;;;;;;0.30;0.30;;;;;;;17.56;54.06;102765.97;5044471;28;20052;-63
2023/05/25 03:13:59;;;;;;;0.30;0.30;;;;;;;17.68;53.49;102763.34;5051102;28;20040;-63
2023/05/25 03:16:24;;;;;;;0.17;0.17;;;;;;;17.65;53.80;102755.66;5051364;28;20443;-63
2023/05/25 03:18:50;;;;;;;0.10;0.10;;;;;;;17.61;54.00;102759.88;5051248;28;20493;-64
2023/05/25 03:21:15;;;;;;;0.30;0.30;;;;;;;17.65;53.38;102763.81;5051520;28;20040;-64
2023/05/25 03:23:41;;;;;;;0.20;0.20;;;;;;;17.39;54.59;102765.66;5050741;28;20515;-64
2023/05/25 03:26:06;;;;;;;0.20;0.20;;;;;;;17.48;54.09;102758.94;5050794;28;20037;-63
2023/05/25 03:28:31;;;;;;;0.17;0.17;;;;;;;17.71;53.49;102758.28;5050580;28;20545;-64
2023/05/25 03:30:57;;;;;;;0.10;0.10;;;;;;;17.64;53.23;102762.97;5050683;28;20508;-63
2023/05/25 03:33:22;;;;;;;0.10;0.10;;;;;;;17.55;53.99;102773.28;5051368;28;20028;-62
2023/05/25 03:35:47;;;;;;;0.30;0.30;;;;;;;17.73;53.60;102772.47;5051470;28;20380;-64
2023/05/25 03:38:13;;;;;;;0.20;0.20;;;;;;;17.46;54.34;102769.19;5050893;28;20029;-63
2023/05/25 03:40:38;;;;;;;0.20;0.20;;;;;;;17.53;53.94;102774.59;5050631;28;20041;-62
2023/05/25 03:43:03;;;;;;;0.20;0.20;;;;;;;17.52;53.66;102775.63;5050587;28;20091;-64
2023/05/25 03:45:29;;;;;;;0.20;0.20;;;;;;;17.62;53.83;102777.81;5050551;28;20038;-63
2023/05/25 03:47:54;;;;;;;0.10;0.10;;;;;;;17.57;54.13;102770.38;5051129;28;20028;-64
2023/05/25 03:50:20;;;;;;;0.20;0.20;;;;;;;17.67;53.56;102769.84;5049523;28;20049;-64
2023/05/25 03:52:45;;;;;;;0.20;0.20;;;;;;;17.71;53.49;102769.16;5050988;28;20107;-64
2023/05/25 03:55:14;;;;;;;0.10;0.10;;;;;;;17.54;53.73;102768.94;5050197;28;20477;-61
2023/05/25 03:57:39;;;;;;;0.15;0.15;;;;;;;17.52;53.72;102770.19;5050121;28;20033;-64
2023/05/25 04:00:10;;;;;;;0.10;0.10;;;;;;;17.58;53.80;102772.00;5050553;28;20151;-63
2023/05/25 04:02:35;;;;;;;0.20;0.20;;;;;;;17.56;54.16;102771.41;5048614;28;20045;-63
2023/05/25 04:05:01;;;;;;;0.20;0.20;;;;;;;17.39;54.18;102779.25;5050013;28;20056;-64
2023/05/25 04:07:28;;;;;;;0.30;0.30;;;;;;;17.24;55.18;102792.38;5050034;28;20033;-63
2023/05/25 04:09:54;;;;;;;0.20;0.20;;;;;;;17.48;54.00;102786.13;5049735;28;20064;-63
2023/05/25 04:12:20;;;;;;;0.10;0.10;;;;;;;17.59;54.63;102781.84;5049622;28;20091;-62
2023/05/25 04:14:45;;;;;;;0.22;0.22;;;;;;;17.28;56.67;102788.16;5049335;28;20041;-63
2023/05/25 04:17:10;;;;;;;0.10;0.10;;;;;;;16.77;58.41;102792.06;5049660;28;20033;-64
2023/05/25 04:19:36;;;;;;;0.30;0.30;;;;;;;16.59;59.14;102790.09;5049637;28;20106;-62
2023/05/25 04:22:01;;;;;;;0.20;0.20;;;;;;;17.67;56.13;102792.41;5050008;28;20029;-63
2023/05/25 04:24:26;;;;;;;0.20;0.20;;;;;;;17.78;56.42;102793.56;5049875;28;20032;-63
2023/05/25 04:26:52;;;;;;;0.20;0.20;;;;;;;18.06;55.23;102786.53;5050113;28;20028;-69
2023/05/25 04:29:17;;;;;;;0.10;0.10;;;;;;;18.18;55.17;102782.00;5033593;28;20121;-69
2023/05/25 04:31:44;;;;;;;0.15;0.15;;;;;;;18.05;55.25;102775.88;5029865;28;20045;-69
2023/05/25 04:34:10;;;;;;;0.20;0.20;;;;;;;17.70;56.30;102785.69;5037049;28;20542;-69
2023/05/25 04:36:37;;;;;;;0.20;0.20;;;;;;;17.56;57.00;102779.56;5050205;28;20045;-69
2023/05/25 04:39:03;;;;;;;0.20;0.20;;;;;;;17.10;58.98;102792.72;5050241;28;20013;-70
2023/05/25 04:41:28;;;;;;;0.20;0.20;;;;;;;16.37;61.62;102791.47;5048949;28;20052;-68
2023/05/25 04:43:54;;;;;;;0.40;0.40;;;;;;;17.49;59.07;102785.06;5048869;28;20029;-69
2023/05/25 04:46:19;;;;;;;0.15;0.15;;;;;;;17.86;56.95;102790.56;5048617;28;20493;-68
2023/05/25 04:48:45;;;;;;;0.20;0.20;;;;;;;17.33;59.91;102795.66;5049098;28;20087;-69
2023/05/25 04:51:11;;;;;;;0.25;0.25;;;;;;;17.05;59.85;102790.66;5049347;28;20070;-69
2023/05/25 04:53:36;;;;;;;0.22;0.22;;;;;;;17.64;58.34;102787.44;5048718;28;20033;-70
2023/05/25 04:56:02;;;;;;;0.13;0.13;;;;;;;18.18;57.08;102784.72;5050710;28;20044;-70
2023/05/25 04:58:28;;;;;;;0.30;0.30;;;;;;;18.52;55.80;102794.16;5048578;28;20508;-69
2023/05/25 05:00:56;;;;;;;0.20;0.20;;;;;;;18.04;57.27;102799.53;5048822;28;20424;-69
2023/05/25 05:03:22;;;;;;;0.20;0.20;;;;;;;17.49;58.74;102806.81;5047205;28;20127;-69
2023/05/25 05:05:48;;;;;;;0.30;0.30;;;;;;;18.22;57.20;102804.97;5047770;28;20024;-70
2023/05/25 05:08:14;;;;;;;0.20;0.20;;;;;;;17.67;58.56;102807.91;5042693;28;20037;-68
2023/05/25 05:10:39;;;;;;;0.20;0.20;;;;;;;17.16;60.38;102811.66;5037190;28;20073;-69
2023/05/25 05:13:05;;;;;;;0.30;0.30;;;;;;;17.90;59.37;102813.53;5029310;28;20037;-69
2023/05/25 05:15:30;;;;;;;0.10;0.10;;;;;;;17.48;59.92;102818.75;5042567;28;20021;-71
2023/05/25 05:17:56;;;;;;;0.20;0.20;;;;;;;17.49;60.68;102820.41;5048724;28;20025;-70
2023/05/25 05:20:21;;;;;;;0.20;0.20;;;;;;;17.23;62.54;102828.75;5045197;28;20051;-69
2023/05/25 05:22:47;;;;;;;0.20;0.20;;;;;;;17.83;60.32;102820.91;5048621;28;20033;-69
2023/05/25 05:25:12;;;;;;;0.20;0.20;;;;;;;18.04;59.07;102823.22;5049367;28;20447;-69
2023/05/25 05:27:38;;;;;;;0.20;0.20;;;;;;;18.53;57.60;102824.94;5053312;28;20040;-70
2023/05/25 05:30:04;;;;;;;0.20;0.20;;;;;;;18.18;59.56;102838.34;5061585;28;20040;-70
2023/05/25 05:32:30;;;;;;;0.20;0.20;;;;;;;17.71;61.22;102849.94;5049162;28;20048;-69
2023/05/25 05:34:55;;;;;;;0.20;0.20;;;;;;;18.16;60.57;102845.91;5049165;28;20037;-69
2023/05/25 05:37:21;;;;;;;0.28;0.28;;;;;;;17.42;62.98;102845.94;5049605;28;20559;-70
2023/05/25 05:39:46;;;;;;;0.20;0.20;;;;;;;18.35;60.28;102840.22;5049364;28;20090;-70
2023/05/25 05:42:11;;;;;;;0.10;0.10;;;;;;;18.62;59.39;102846.19;5031811;28;20040;-69
2023/05/25 05:44:37;;;;;;;0.25;0.25;;;;;;;18.77;58.60;102853.97;5049098;28;20052;-69
2023/05/25 05:47:02;;;;;;;0.20;0.20;;;;;;;18.47;59.56;102848.47;5054728;28;20032;-69
2023/05/25 05:49:29;;;;;;;0.20;0.20;;;;;;;18.38;60.42;102855.25;5047508;28;20501;-68
2023/05/25 05:51:54;;;;;;;0.20;0.20;;;;;;;18.62;59.32;102861.69;5049108;28;20033;-69
2023/05/25 05:54:20;;;;;;;0.22;0.22;;;;;;;19.36;58.01;102856.63;5047121;28;20029;-69
2023/05/25 05:56:45;;;;;;;0.20;0.20;;;;;;;18.21;62.27;102856.91;5047512;28;20408;-69
2023/05/25 05:59:10;;;;;;;0.20;0.20;;;;;;;18.04;62.06;102866.75;5048285;28;20052;-69
2023/05/25 06:01:36;;;;;;;0.20;0.20;;;;;;;17.82;63.20;102869.06;5048366;28;20029;-70
2023/05/25 06:04:02;;;;;;;0.30;0.30;;;;;;;18.08;62.31;102873.41;5048855;28;20045;-70
2023/05/25 06:06:27;;;;;;;0.20;0.20;;;;;;;17.87;63.74;102877.38;5056125;28;20021;-70
2023/05/25 06:08:53;;;;;;;0.20;0.20;;;;;;;18.98;60.04;102873.34;5040143;28;20087;-70
2023/05/25 06:11:18;;;;;;;0.22;0.22;;;;;;;19.22;58.83;102868.81;5048307;28;20404;-69
2023/05/25 06:13:44;;;;;;;0.20;0.20;;;;;;;20.09;56.40;102859.75;5048370;28;20040;-68
2023/05/25 06:16:11;;;;;;;0.20;0.20;;;;;;;19.52;58.08;102872.31;5051483;28;20037;-70
2023/05/25 06:18:36;;;;;;;0.20;0.20;;;;;;;18.76;60.56;102876.78;5046422;28;20059;-69
2023/05/25 06:21:02;;;;;;;0.10;0.10;;;;;;;18.82;60.91;102867.69;5052482;28;20029;-69
2023/05/25 06:23:27;;;;;;;0.10;0.10;;;;;;;19.29;59.97;102877.69;5051875;28;20302;-70
2023/05/25 06:25:53;;;;;;;0.13;0.13;;;;;;;20.47;55.44;102873.72;5054270;28;20454;-69
2023/05/25 06:28:19;;;;;;;0.30;0.30;;;;;;;20.23;56.19;102877.56;5031097;28;20033;-69
2023/05/25 06:30:44;;;;;;;0.10;0.10;;;;;;;20.10;55.56;102875.06;5051986;28;20029;-68
2023/05/25 06:33:09;;;;;;;0.20;0.20;;;;;;;18.86;59.18;102883.38;5052671;28;20029;-69
2023/05/25 06:35:35;;;;;;;0.20;0.20;;;;;;;18.73;60.30;102888.97;5051907;28;20025;-70
2023/05/25 06:38:02;;;;;;;0.15;0.15;;;;;;;18.87;60.14;102884.22;5051878;28;20026;-69
2023/05/25 06:40:27;;;;;;;0.20;0.20;;;;;;;18.89;59.86;102882.06;5052024;28;20532;-70
2023/05/25 06:42:53;;;;;;;0.20;0.20;;;;;;;19.06;60.17;102877.63;5051899;28;20029;-70
2023/05/25 06:45:18;;;;;;;0.10;0.10;;;;;;;20.35;55.64;102885.72;5033703;28;20397;-70
2023/05/25 06:47:43;;;;;;;0.15;0.15;;;;;;;19.55;57.30;102882.78;5051652;28;20033;-69
2023/05/25 06:50:09;;;;;;;0.20;0.20;;;;;;;19.55;56.98;102887.38;5051415;28;20040;-70
2023/05/25 06:52:35;;;;;;;0.20;0.20;;;;;;;19.36;58.58;102891.28;5051092;28;20037;-69
2023/05/25 06:55:02;;;;;;;0.20;0.20;;;;;;;20.90;53.58;102893.19;5051429;28;20095;-70
2023/05/25 06:57:28;;;;;;;0.10;0.10;;;;;;;20.11;54.99;102891.19;5051667;28;20569;-68
2023/05/25 06:59:54;;;;;;;0.20;0.20;;;;;;;20.17;55.30;102897.59;5052158;28;20017;-69
2023/05/25 07:02:19;;;;;;;0.10;0.10;;;;;;;20.55;52.88;102900.66;5040760;28;20025;-70
2023/05/25 07:04:45;;;;;;;0.20;0.20;;;;;;;20.91;52.55;102892.09;5051696;28;20029;-70
2023/05/25 07:07:12;;;;;;;0.20;0.20;;;;;;;21.15;51.73;102900.25;5051923;28;20436;-69
2023/05/25 07:09:38;;;;;;;0.20;0.20;;;;;;;21.12;52.02;102898.81;5051783;28;20067;-69
2023/05/25 07:12:06;;;;;;;0.20;0.20;;;;;;;20.02;54.25;102900.00;5052511;28;20396;-70
2023/05/25 07:14:33;;;;;;;0.15;0.15;;;;;;;19.95;54.44;102902.84;5052262;28;20059;-69
2023/05/25 07:16:58;;;;;;;0.20;0.20;;;;;;;20.47;52.14;102911.13;5051431;28;20040;-69
2023/05/25 07:19:23;;;;;;;0.20;0.20;;;;;;;20.46;52.54;102901.28;5050996;28;20041;-70
2023/05/25 07:21:49;;;;;;;0.10;0.10;;;;;;;21.42;50.06;102899.38;5048043;28;20041;-70
2023/05/25 07:24:14;;;;;;;0.10;0.10;;;;;;;21.18;50.46;102902.47;5051218;28;20075;-69
2023/05/25 07:26:40;;;;;;;0.10;0.10;;;;;;;21.10;50.05;102909.19;5049764;28;20029;-69
2023/05/25 07:29:05;;;;;;;0.20;0.20;;;;;;;20.13;51.74;102907.34;5051209;28;20033;-70
2023/05/25 07:31:30;;;;;;;0.20;0.20;;;;;;;19.98;52.86;102905.09;5032687;28;20029;-69
2023/05/25 07:33:56;;;;;;;0.20;0.20;;;;;;;21.16;49.75;102912.81;5051023;28;20362;-69
2023/05/25 07:36:23;;;;;;;0.10;0.10;;;;;;;20.63;49.61;102921.31;5050665;28;20043;-69
2023/05/25 07:38:49;;;;;;;0.15;0.15;;;;;;;20.63;49.96;102924.88;5032985;28;20033;-70
2023/05/25 07:41:14;;;;;;;0.20;0.20;;;;;;;20.14;51.95;102918.03;5050566;28;20021;-70
2023/05/25 07:43:39;;;;;;;0.10;0.10;;;;;;;21.75;47.06;102925.91;5050668;28;20033;-70
2023/05/25 07:46:05;;;;;;;0.10;0.10;;;;;;;21.88;46.20;102919.31;5050380;28;20104;-71
2023/05/25 07:48:31;;;;;;;0.10;0.10;;;;;;;21.83;47.12;102925.53;5050321;28;20021;-70
2023/05/25 07:50:56;;;;;;;0.20;0.20;;;;;;;21.96;46.95;102924.34;5032797;28;20035;-69
2023/05/25 07:53:22;;;;;;;0.20;0.20;;;;;;;21.49;47.05;102918.34;5033325;28;20040;-69
2023/05/25 07:55:47;;;;;;;0.10;0.10;;;;;;;22.41;45.24;102922.28;5050198;28;20083;-71
2023/05/25 07:58:13;;;;;;;0.15;0.15;;;;;;;22.24;44.08;102922.31;5048099;28;20032;-71
2023/05/25 08:00:38;;;;;;;0.10;0.10;;;;;;;21.69;45.52;102929.66;5049945;28;20028;-74
2023/05/25 08:03:04;;;;;;;0.20;0.20;;;;;;;20.60;47.47;102924.53;5031924;28;20025;-71
2023/05/25 08:05:29;;;;;;;0.15;0.15;;;;;;;22.79;42.45;102922.25;5049747;28;20032;-70
2023/05/25 08:07:55;;;;;;;0.10;0.10;;;;;;;22.39;43.88;102932.66;5048227;28;20025;-72
2023/05/25 08:10:20;;;;;;;0.10;0.10;;;;;;;22.92;41.90;102930.06;5052013;28;20050;-70
2023/05/25 08:12:46;;;;;;;0.10;0.10;;;;;;;22.44;42.67;102939.06;5049838;28;20095;-71
2023/05/25 08:15:12;;;;;;;0.10;0.10;;;;;;;22.76;42.77;102944.69;5050571;28;20032;-70
2023/05/25 08:17:38;;;;;;;0.10;0.10;;;;;;;22.51;43.10;102939.69;5049595;28;20033;-71
2023/05/25 08:20:05;;;;;;;0.10;0.10;;;;;;;22.52;43.56;102948.75;5049437;28;20392;-71
2023/05/25 08:22:30;;;;;;;0.10;0.10;;;;;;;23.05;41.97;102942.56;5050100;28;20033;-70
2023/05/25 08:24:56;;;;;;;0.10;0.10;;;;;;;23.67;40.55;102946.50;5029272;28;20409;-72
2023/05/25 08:27:21;;;;;;;0.10;0.10;;;;;;;22.44;42.95;102951.91;5049594;28;20043;-69
2023/05/25 08:29:47;;;;;;;0.10;0.10;;;;;;;23.32;40.60;102952.50;5049839;28;20009;-71
2023/05/25 08:32:12;;;;;;;0.10;0.10;;;;;;;23.67;39.47;102943.75;5049325;28;20025;-71
2023/05/25 08:34:37;;;;;;;0.10;0.10;;;;;;;24.44;38.20;102957.81;5049225;28;20036;-70
2023/05/25 08:37:03;;;;;;;0.10;0.10;;;;;;;23.11;40.84;102958.00;5048861;28;20033;-70
2023/05/25 08:39:28;;;;;;;0.10;0.10;;;;;;;23.38;39.68;102956.97;5049927;28;20168;-71
2023/05/25 08:41:54;;;;;;;0.10;0.10;;;;;;;24.85;36.37;102954.19;5049821;28;20029;-71
2023/05/25 08:44:20;;;;;;;0.10;0.10;;;;;;;25.07;36.00;102967.75;5049052;28;20053;-72
2023/05/25 08:46:49;;;;;;;0.10;0.10;;;;;;;25.26;35.08;102960.63;5049052;28;20056;-72
2023/05/25 08:49:15;;;;;;;0.10;0.10;;;;;;;22.52;38.39;102968.75;5048732;28;20028;-71
2023/05/25 08:51:49;;;;;;;0.10;0.10;;;;;;;24.59;36.38;102955.13;5049012;28;20025;-71
2023/05/25 08:54:18;;;;;;;0.10;0.10;;;;;;;24.23;36.25;102958.78;5049585;28;20116;-70
2023/05/25 08:57:19;;;;;;;0.10;0.10;;;;;;;25.21;34.64;102957.88;5048189;28;20033;-70
2023/05/25 08:59:47;;;;;;;0.10;0.10;;;;;;;22.50;38.98;102967.34;4967001;28;20518;-70
2023/05/25 09:02:40;;;;;;;0.10;0.10;;;;;;;23.16;39.45;102969.84;4967365;28;20043;-71
2023/05/25 09:05:07;;;;;;;0.10;0.10;;;;;;;24.79;36.30;102965.44;4967343;28;20050;-70
2023/05/25 09:07:33;;;;;;;0.10;0.10;;;;;;;25.04;35.20;102954.53;4968189;28;20042;-69
2023/05/25 09:10:00;;;;;;;0.10;0.10;;;;;;;24.27;36.88;102968.16;4967251;28;20113;-71
2023/05/25 09:12:30;;;;;;;0.00;0.00;;;;;;;22.85;40.19;102965.09;4966191;28;20097;-70
2023/05/25 09:14:57;;;;;;;0.00;0.00;;;;;;;22.94;39.71;102974.53;4967208;28;20101;-72
2023/05/25 09:17:22;;;;;;;0.10;0.10;;;;;;;23.68;37.21;102969.31;4967025;28;20043;-71
2023/05/25 09:19:49;;;;;;;0.10;0.10;;;;;;;24.19;36.58;102963.16;4966946;28;20027;-71
2023/05/25 09:22:14;;;;;;;0.10;0.10;;;;;;;24.44;36.81;102971.56;4967326;28;20087;-71
2023/05/25 09:24:40;;;;;;;0.00;0.00;;;;;;;22.22;40.70;102981.16;4966508;28;20042;-71
2023/05/25 09:27:09;;;;;;;0.10;0.10;;;;;;;24.63;36.72;102970.00;4967514;28;20038;-70
2023/05/25 09:29:35;;;;;;;0.10;0.10;;;;;;;25.87;34.00;102975.31;4967127;28;20047;-70
2023/05/25 09:32:04;;;;;;;0.10;0.10;;;;;;;23.90;37.84;102970.88;4967383;28;20221;-71
2023/05/25 09:34:33;;;;;;;0.10;0.10;;;;;;;21.98;40.89;102979.69;5016744;28;20037;-73
2023/05/25 09:37:03;;;;;;;0.10;0.10;;;;;;;23.65;38.50;102983.53;5028394;28;20042;-70
2023/05/25 09:39:29;;;;;;;0.10;0.10;;;;;;;23.95;37.29;102972.84;5028575;28;20026;-69
2023/05/25 09:41:56;;;;;;;0.10;0.10;;;;;;;24.59;36.73;102979.88;5029000;28;20060;-71
2023/05/25 09:44:21;;;;;;;0.10;0.10;;;;;;;23.74;39.06;102982.00;5028242;28;20044;-71
2023/05/25 09:46:47;;;;;;;0.10;0.10;;;;;;;23.64;38.69;102976.41;5010469;28;20030;-72
2023/05/25 09:49:12;;;;;;;0.10;0.10;;;;;;;24.02;37.49;102978.94;5030424;28;20163;-71
2023/05/25 09:51:38;;;;;;;0.10;0.10;;;;;;;24.16;36.36;102978.25;5032641;28;20017;-71
2023/05/25 09:54:07;;;;;;;0.10;0.10;;;;;;;23.00;39.01;102987.22;5032920;28;20033;-73
2023/05/25 09:56:33;;;;;;;0.00;0.00;;;;;;;23.19;39.17;102983.03;5032090;28;20041;-72
2023/05/25 09:58:58;;;;;;;0.00;0.00;;;;;;;24.05;37.45;102982.03;5032040;28;20115;-70
2023/05/25 10:01:24;;;;;;;0.10;0.10;;;;;;;23.90;37.82;102979.09;5031133;28;20045;-71
2023/05/25 10:03:50;;;;;;;0.10;0.10;;;;;;;22.75;39.98;102992.38;5031710;28;20075;-71
2023/05/25 10:06:18;;;;;;;0.00;0.00;;;;;;;22.69;40.34;102987.91;5032641;28;20045;-71
2023/05/25 10:08:44;;;;;;;0.10;0.10;;;;;;;22.69;40.41;102991.50;5029403;28;20052;-72
2023/05/25 10:11:14;;;;;;;0.10;0.10;;;;;;;23.08;39.87;102984.03;5031551;28;20572;-71
2023/05/25 10:13:43;;;;;;;0.00;0.00;;;;;;;22.99;39.63;102991.06;5032420;28;20057;-71
2023/05/25 10:16:12;;;;;;;0.10;0.10;;;;;;;22.54;41.07;102988.50;5032372;28;20113;-70
2023/05/25 10:18:53;;;;;;;0.00;0.00;;;;;;;23.87;38.46;102989.78;5032052;28;20395;-72
2023/05/25 10:21:21;;;;;;;0.03;0.03;;;;;;;23.68;38.80;102991.28;5032984;28;20017;-71
2023/05/25 10:23:49;;;;;;;0.00;0.00;;;;;;;24.63;37.50;102982.94;5052728;28;20072;-72
2023/05/25 10:26:21;;;;;;;0.00;0.00;;;;;;;23.42;38.86;103002.00;5056520;28;20048;-71
2023/05/25 10:28:50;;;;;;;0.10;0.10;;;;;;;24.74;38.20;102995.66;5051777;28;20171;-71
2023/05/25 10:31:15;;;;;;;0.00;0.00;;;;;;;24.56;36.71;102990.59;5051522;28;20033;-72
2023/05/25 10:33:43;;;;;;;0.00;0.00;;;;;;;22.78;38.75;102996.53;5050154;28;20048;-71
2023/05/25 10:36:09;;;;;;;0.00;0.00;;;;;;;24.12;36.58;102995.50;5051771;28;20029;-71
2023/05/25 10:38:38;;;;;;;0.00;0.00;;;;;;;23.38;38.29;103000.88;5050957;28;20041;-70
2023/05/25 10:41:04;;;;;;;0.00;0.00;;;;;;;22.97;39.05;103000.63;5048786;28;20090;-71
2023/05/25 10:43:31;;;;;;;0.00;0.00;;;;;;;23.39;37.45;102997.03;5051621;28;20033;-71
2023/05/25 10:45:56;;;;;;;0.10;0.10;;;;;;;23.96;37.40;102997.28;5051645;28;20025;-71
2023/05/25 10:48:22;;;;;;;0.00;0.00;;;;;;;23.60;37.64;102997.22;5051453;28;20036;-71
2023/05/25 10:50:50;;;;;;;0.10;0.10;;;;;;;22.93;40.32;103007.69;5052245;28;20025;-72
2023/05/25 10:53:19;;;;;;;0.03;0.03;;;;;;;22.81;40.46;102994.13;5051706;28;20413;-71
2023/05/25 10:56:01;;;;;;;0.10;0.10;;;;;;;22.89;39.75;102999.16;5051637;28;20428;-73
2023/05/25 10:58:28;;;;;;;0.10;0.10;;;;;;;22.50;39.83;103005.72;5043386;28;20049;-71
2023/05/25 11:01:07;;;;;;;0.00;0.00;;;;;;;21.90;40.87;103000.09;5048805;28;20032;-70
2023/05/25 11:03:55;;;;;;;0.10;0.10;;;;;;;23.67;37.79;102993.19;5044228;28;20048;-71
2023/05/25 11:06:22;;;;;;;0.10;0.10;;;;;;;23.74;37.10;102993.81;5051778;28;20420;-70
2023/05/25 11:08:54;;;;;;;0.10;0.10;;;;;;;24.17;36.96;102993.66;5051331;28;20512;-71
2023/05/25 11:11:21;;;;;;;0.10;0.10;;;;;;;24.63;35.52;102999.44;5050633;28;20599;-71
2023/05/25 11:13:48;;;;;;;0.10;0.10;;;;;;;24.21;36.69;102982.97;5051120;28;20516;-71
2023/05/25 11:16:17;;;;;;;0.00;0.00;;;;;;;25.23;35.46;102983.19;5050997;28;20048;-71
2023/05/25 11:18:48;;;;;;;0.10;0.10;;;;;;;24.21;35.48;102983.78;5051076;28;20320;-72
2023/05/25 11:21:39;;;;;;;0.00;0.00;;;;;;;24.65;34.87;102973.31;5051785;28;20025;-72
2023/05/25 11:24:16;;;;;;;0.00;0.00;;;;;;;25.58;33.72;102983.28;5051482;28;20049;-71